createdAt,value
2023-03-26T00:00:54.059Z,7.87
2023-03-26T00:03:20.368Z,7.86
2023-03-26T00:05:46.747Z,7.90
2023-03-26T00:08:13.093Z,7.91
2023-03-26T00:10:39.420Z,8.11
2023-03-26T00:13:05.744Z,8.14
2023-03-26T00:15:32.056Z,8.13
2023-03-26T00:17:58.437Z,8.16
2023-03-26T00:20:24.778Z,8.14
2023-03-26T00:22:51.096Z,8.23
2023-03-26T00:25:17.432Z,8.10
2023-03-26T00:27:43.763Z,7.97
2023-03-26T00:30:10.072Z,7.94
2023-03-26T00:32:36.421Z,7.94
2023-03-26T00:35:02.790Z,8.02
2023-03-26T00:37:29.126Z,8.02
2023-03-26T00:39:55.455Z,8.09
2023-03-26T00:42:27.277Z,8.20
2023-03-26T00:44:53.594Z,8.39
2023-03-26T00:47:19.946Z,8.53
2023-03-26T00:49:46.256Z,8.54
2023-03-26T00:52:12.564Z,8.60
2023-03-26T00:54:38.884Z,8.57
2023-03-26T00:57:05.238Z,8.74
2023-03-26T00:59:31.564Z,8.75
2023-03-26T01:01:57.941Z,8.87
2023-03-26T01:04:24.527Z,8.77
2023-03-26T01:06:50.957Z,8.76
2023-03-26T01:09:17.324Z,8.67
2023-03-26T01:11:43.674Z,8.68
2023-03-26T01:14:09.979Z,8.65
2023-03-26T01:16:36.295Z,8.68
2023-03-26T01:19:02.630Z,8.75
2023-03-26T01:21:28.940Z,8.79
2023-03-26T01:23:55.246Z,8.78
2023-03-26T01:26:21.549Z,8.82
2023-03-26T01:28:47.903Z,8.84
2023-03-26T01:31:14.218Z,8.83
2023-03-26T01:33:40.590Z,8.94
2023-03-26T01:36:07.120Z,8.87
2023-03-26T01:38:33.467Z,8.87
2023-03-26T01:40:59.776Z,8.81
2023-03-26T01:43:26.108Z,8.77
2023-03-26T01:45:52.688Z,8.65
2023-03-26T01:48:19.177Z,8.68
2023-03-26T01:50:45.509Z,8.71
2023-03-26T01:53:11.827Z,8.71
2023-03-26T01:55:38.157Z,8.76
2023-03-26T01:58:04.458Z,8.78
2023-03-26T02:00:30.760Z,8.69
2023-03-26T02:02:57.191Z,8.68
2023-03-26T02:05:23.577Z,8.58
2023-03-26T02:07:49.877Z,8.58
2023-03-26T02:10:16.174Z,8.65
2023-03-26T02:12:42.494Z,8.74
2023-03-26T02:15:08.826Z,8.76
2023-03-26T02:17:35.201Z,8.74
2023-03-26T02:20:01.531Z,8.79
2023-03-26T02:22:27.829Z,8.74
2023-03-26T02:24:54.132Z,8.79
2023-03-26T02:27:20.497Z,8.68
2023-03-26T02:29:46.834Z,8.65
2023-03-26T02:32:13.145Z,8.65
2023-03-26T02:34:39.450Z,8.76
2023-03-26T02:37:05.771Z,8.76
2023-03-26T02:39:32.110Z,8.86
2023-03-26T02:41:58.423Z,8.78
2023-03-26T02:44:24.734Z,8.83
2023-03-26T02:46:51.060Z,8.58
2023-03-26T02:49:17.387Z,8.58
2023-03-26T02:51:43.709Z,8.58
2023-03-26T02:54:10.043Z,8.54
2023-03-26T02:56:36.363Z,8.61
2023-03-26T02:59:02.701Z,8.58
2023-03-26T03:01:29.083Z,8.49
2023-03-26T03:03:55.390Z,8.54
2023-03-26T03:06:21.698Z,8.57
2023-03-26T03:08:48.005Z,8.55
2023-03-26T03:11:14.788Z,8.47
2023-03-26T03:13:41.292Z,8.36
2023-03-26T03:16:07.610Z,8.26
2023-03-26T03:18:33.948Z,8.19
2023-03-26T03:21:00.293Z,8.21
2023-03-26T03:23:26.612Z,8.11
2023-03-26T03:25:53.132Z,8.10
2023-03-26T03:28:19.861Z,7.91
2023-03-26T03:30:46.222Z,7.94
2023-03-26T03:33:12.544Z,7.87
2023-03-26T03:35:38.895Z,7.88
2023-03-26T03:38:05.267Z,7.55
2023-03-26T03:40:31.594Z,7.65
2023-03-26T03:42:57.925Z,7.75
2023-03-26T03:45:24.257Z,7.74
2023-03-26T03:47:50.589Z,7.82
2023-03-26T03:50:16.972Z,7.87
2023-03-26T03:52:43.284Z,7.84
2023-03-26T03:55:09.589Z,7.82
2023-03-26T03:57:35.898Z,7.96
2023-03-26T04:00:03.134Z,7.94
2023-03-26T04:02:30.483Z,8.00
2023-03-26T04:04:56.909Z,7.96
2023-03-26T04:07:23.228Z,7.91
2023-03-26T04:09:49.533Z,7.89
2023-03-26T04:12:15.844Z,7.77
2023-03-26T04:14:42.181Z,7.85
2023-03-26T04:17:08.482Z,7.86
2023-03-26T04:19:34.788Z,7.86
2023-03-26T04:22:01.124Z,7.81
2023-03-26T04:24:27.430Z,7.79
2023-03-26T04:26:53.737Z,7.80
2023-03-26T04:29:20.141Z,7.86
2023-03-26T04:31:46.479Z,7.97
2023-03-26T04:34:12.888Z,8.03
2023-03-26T04:36:39.204Z,8.02
2023-03-26T04:39:05.541Z,7.82
2023-03-26T04:41:31.870Z,7.90
2023-03-26T04:43:58.195Z,7.74
2023-03-26T04:46:24.552Z,7.93
2023-03-26T04:48:50.908Z,7.88
2023-03-26T04:51:17.248Z,7.94
2023-03-26T04:53:43.546Z,7.93
2023-03-26T04:56:09.845Z,7.94
2023-03-26T04:58:36.152Z,8.00
2023-03-26T05:01:09.787Z,8.02
2023-03-26T05:03:36.911Z,8.10
2023-03-26T05:06:03.225Z,8.17
2023-03-26T05:08:29.706Z,8.08
2023-03-26T05:10:56.239Z,8.14
2023-03-26T05:13:22.728Z,8.12
2023-03-26T05:15:49.048Z,8.14
2023-03-26T05:18:15.348Z,8.21
2023-03-26T05:20:41.648Z,8.24
2023-03-26T05:23:07.990Z,8.26
2023-03-26T05:25:34.316Z,8.40
2023-03-26T05:28:00.618Z,8.43
2023-03-26T05:30:26.947Z,8.28
2023-03-26T05:32:53.324Z,8.26
2023-03-26T05:35:19.796Z,8.21
2023-03-26T05:37:46.154Z,8.27
2023-03-26T05:40:12.452Z,8.31
2023-03-26T05:42:38.777Z,8.26
2023-03-26T05:45:05.104Z,8.28
2023-03-26T05:47:31.511Z,8.41
2023-03-26T05:49:57.884Z,8.49
2023-03-26T05:52:24.216Z,8.51
2023-03-26T05:54:50.532Z,8.41
2023-03-26T05:57:16.897Z,8.33
2023-03-26T05:59:43.220Z,8.29
2023-03-26T06:02:09.546Z,8.30
2023-03-26T06:04:35.976Z,7.84
2023-03-26T06:07:02.399Z,7.59
2023-03-26T06:09:28.712Z,7.61
2023-03-26T06:11:55.013Z,7.60
2023-03-26T06:14:21.327Z,7.73
2023-03-26T06:16:47.653Z,7.72
2023-03-26T06:19:13.996Z,7.76
2023-03-26T06:21:40.340Z,7.86
2023-03-26T06:24:06.652Z,8.02
2023-03-26T06:26:32.983Z,8.08
2023-03-26T06:28:59.305Z,8.15
2023-03-26T06:31:25.712Z,8.27
2023-03-26T06:33:52.041Z,8.21
2023-03-26T06:36:18.388Z,8.29
2023-03-26T06:38:44.758Z,8.29
2023-03-26T06:41:11.076Z,8.34
2023-03-26T06:43:37.477Z,8.40
2023-03-26T06:46:03.965Z,8.42
2023-03-26T06:48:30.376Z,8.43
2023-03-26T06:50:56.712Z,8.48
2023-03-26T06:53:23.048Z,8.51
2023-03-26T06:55:49.376Z,8.54
2023-03-26T06:58:15.712Z,8.51
2023-03-26T07:00:42.034Z,8.52
2023-03-26T07:03:08.384Z,8.55
2023-03-26T07:05:34.708Z,8.53
2023-03-26T07:08:01.011Z,8.53
2023-03-26T07:10:27.329Z,8.57
2023-03-26T07:12:53.657Z,8.75
2023-03-26T07:15:19.965Z,8.71
2023-03-26T07:17:46.304Z,8.70
2023-03-26T07:20:12.623Z,8.72
2023-03-26T07:22:38.933Z,8.68
2023-03-26T07:25:05.230Z,8.68
2023-03-26T07:27:31.543Z,8.71
2023-03-26T07:29:57.860Z,8.70
2023-03-26T07:32:24.215Z,8.71
2023-03-26T07:34:50.556Z,8.74
2023-03-26T07:37:16.868Z,8.69
2023-03-26T07:39:43.187Z,8.78
2023-03-26T07:42:09.510Z,8.74
2023-03-26T07:44:36.024Z,8.76
2023-03-26T07:47:02.377Z,8.81
2023-03-26T07:49:28.692Z,8.69
2023-03-26T07:51:55.020Z,8.72
2023-03-26T07:54:21.327Z,8.76
2023-03-26T07:56:47.682Z,8.72
2023-03-26T07:59:14.017Z,8.69
2023-03-26T08:01:40.329Z,8.66
2023-03-26T08:04:23.772Z,8.81
2023-03-26T08:06:52.679Z,8.69
2023-03-26T08:09:19.011Z,8.59
2023-03-26T08:11:45.376Z,8.60
2023-03-26T08:14:11.713Z,8.59
2023-03-26T08:16:38.026Z,8.56
2023-03-26T08:19:04.325Z,8.52
2023-03-26T08:21:30.641Z,8.44
2023-03-26T08:23:56.991Z,8.43
2023-03-26T08:26:23.306Z,8.47
2023-03-26T08:28:49.626Z,8.52
2023-03-26T08:31:15.970Z,8.51
2023-03-26T08:33:42.341Z,8.65
2023-03-26T08:36:08.649Z,8.71
2023-03-26T08:38:34.971Z,8.75
2023-03-26T08:41:01.284Z,8.83
2023-03-26T08:43:27.586Z,8.96
2023-03-26T08:45:53.906Z,9.02
2023-03-26T08:48:20.232Z,9.05
2023-03-26T08:50:46.569Z,9.13
2023-03-26T08:53:12.889Z,9.17
2023-03-26T08:55:39.228Z,9.33
2023-03-26T08:58:05.548Z,9.35
2023-03-26T09:00:31.864Z,9.45
2023-03-26T09:02:58.237Z,9.61
2023-03-26T09:05:24.605Z,9.51
2023-03-26T09:07:50.930Z,9.54
2023-03-26T09:10:17.238Z,9.47
2023-03-26T09:12:43.570Z,9.37
2023-03-26T09:15:09.891Z,9.35
2023-03-26T09:17:36.223Z,9.25
2023-03-26T09:20:02.576Z,9.17
2023-03-26T09:22:28.923Z,9.16
2023-03-26T09:24:55.235Z,9.30
2023-03-26T09:27:21.573Z,9.32
2023-03-26T09:29:47.888Z,9.35
2023-03-26T09:32:14.198Z,9.43
2023-03-26T09:34:40.522Z,9.55
2023-03-26T09:37:06.854Z,9.55
2023-03-26T09:39:33.166Z,9.71
2023-03-26T09:41:59.479Z,9.66
2023-03-26T09:44:25.801Z,9.51
2023-03-26T09:46:52.133Z,9.50
2023-03-26T09:49:18.478Z,9.31
2023-03-26T09:51:44.793Z,9.23
2023-03-26T09:54:12.172Z,9.18
2023-03-26T09:56:39.615Z,9.06
2023-03-26T09:59:06.192Z,9.25
2023-03-26T10:01:32.519Z,9.25
2023-03-26T10:03:58.859Z,9.34
2023-03-26T10:06:25.195Z,9.43
2023-03-26T10:08:51.512Z,9.22
2023-03-26T10:11:17.855Z,9.36
2023-03-26T10:13:44.158Z,9.45
2023-03-26T10:16:10.599Z,9.43
2023-03-26T10:18:36.972Z,9.36
2023-03-26T10:21:03.315Z,9.57
2023-03-26T10:23:29.618Z,9.64
2023-03-26T10:25:55.924Z,9.61
2023-03-26T10:28:22.249Z,9.69
2023-03-26T10:30:48.602Z,9.78
2023-03-26T10:33:14.934Z,9.65
2023-03-26T10:35:41.264Z,9.29
2023-03-26T10:38:07.621Z,9.00
2023-03-26T10:40:33.930Z,8.89
2023-03-26T10:43:00.241Z,8.85
2023-03-26T10:45:26.555Z,8.70
2023-03-26T10:47:52.908Z,8.91
2023-03-26T10:50:23.666Z,8.97
2023-03-26T10:52:50.201Z,9.09
2023-03-26T10:55:16.515Z,9.22
2023-03-26T10:57:42.819Z,9.27
2023-03-26T11:00:09.128Z,9.20
2023-03-26T11:02:35.451Z,9.15
2023-03-26T11:05:01.753Z,9.11
2023-03-26T11:07:28.077Z,9.15
2023-03-26T11:09:54.398Z,9.08
2023-03-26T11:12:26.584Z,9.14
2023-03-26T11:14:54.569Z,9.22
2023-03-26T11:17:40.663Z,9.16
2023-03-26T11:20:07.160Z,9.18
2023-03-26T11:22:33.487Z,9.29
2023-03-26T11:24:59.818Z,9.15
2023-03-26T11:27:26.536Z,9.15
2023-03-26T11:29:52.948Z,9.25
2023-03-26T11:32:19.313Z,9.52
2023-03-26T11:34:45.971Z,9.77
2023-03-26T11:37:12.277Z,9.90
2023-03-26T11:39:38.600Z,9.77
2023-03-26T11:42:04.929Z,9.97
2023-03-26T11:44:31.250Z,10.00
2023-03-26T11:46:57.578Z,9.99
2023-03-26T11:49:23.946Z,9.99
2023-03-26T11:51:50.288Z,9.94
2023-03-26T11:54:16.608Z,9.93
2023-03-26T11:57:05.755Z,9.96
2023-03-26T11:59:29.217Z,9.93
2023-03-26T12:01:55.571Z,10.03
2023-03-26T12:04:21.891Z,9.89
2023-03-26T12:06:48.238Z,9.88
2023-03-26T12:09:14.534Z,9.88
2023-03-26T12:11:40.852Z,9.93
2023-03-26T12:14:07.156Z,9.94
2023-03-26T12:16:33.507Z,9.93
2023-03-26T12:18:59.866Z,9.84
2023-03-26T12:21:26.181Z,9.78
2023-03-26T12:23:52.547Z,9.66
2023-03-26T12:26:18.854Z,9.69
2023-03-26T12:28:45.168Z,9.59
2023-03-26T12:31:11.551Z,9.00
2023-03-26T12:33:37.922Z,8.52
2023-03-26T12:36:04.283Z,8.29
2023-03-26T12:38:30.622Z,8.06
2023-03-26T12:40:56.919Z,7.73
2023-03-26T12:44:49.665Z,7.55
2023-03-26T12:47:56.097Z,7.45
2023-03-26T12:48:55.901Z,7.30
2023-03-26T12:51:22.312Z,7.29
2023-03-26T12:53:48.640Z,7.14
2023-03-26T12:56:14.950Z,6.58
2023-03-26T12:58:41.283Z,5.90
2023-03-26T13:01:07.619Z,5.58
2023-03-26T13:03:33.971Z,5.74
2023-03-26T13:06:00.356Z,5.85
2023-03-26T13:08:26.701Z,6.06
2023-03-26T13:10:53.167Z,6.23
2023-03-26T13:13:19.533Z,6.32
2023-03-26T13:15:45.828Z,6.46
2023-03-26T13:18:12.135Z,6.79
2023-03-26T13:20:38.461Z,6.92
2023-03-26T13:23:04.782Z,7.10
2023-03-26T13:25:31.081Z,7.39
2023-03-26T13:27:57.399Z,7.63
2023-03-26T13:30:23.702Z,7.71
2023-03-26T13:32:50.036Z,7.75
2023-03-26T13:35:16.430Z,7.92
2023-03-26T13:37:42.768Z,7.63
2023-03-26T13:40:09.092Z,7.65
2023-03-26T13:42:35.432Z,7.86
2023-03-26T13:45:04.626Z,8.11
2023-03-26T13:47:32.283Z,8.15
2023-03-26T13:49:58.682Z,8.24
2023-03-26T13:52:25.022Z,8.29
2023-03-26T13:54:51.393Z,8.16
2023-03-26T13:57:17.736Z,8.00
2023-03-26T13:59:44.136Z,8.00
2023-03-26T14:02:10.441Z,7.76
2023-03-26T14:04:36.744Z,7.66
2023-03-26T14:07:03.054Z,7.59
2023-03-26T14:09:29.347Z,7.52
2023-03-26T14:11:55.647Z,7.31
2023-03-26T14:14:21.945Z,7.33
2023-03-26T14:16:48.252Z,7.53
2023-03-26T14:19:14.576Z,7.79
2023-03-26T14:21:40.888Z,7.74
2023-03-26T14:24:07.195Z,7.83
2023-03-26T14:26:33.489Z,8.01
2023-03-26T14:28:59.804Z,8.20
2023-03-26T14:31:26.153Z,8.27
2023-03-26T14:33:52.493Z,8.39
2023-03-26T14:36:18.848Z,8.52
2023-03-26T14:38:45.160Z,8.60
2023-03-26T14:43:46.787Z,8.83
2023-03-26T14:46:13.167Z,9.05
2023-03-26T14:48:39.589Z,9.46
2023-03-26T14:51:05.949Z,9.52
2023-03-26T14:53:32.282Z,9.56
2023-03-26T14:55:58.604Z,9.52
2023-03-26T14:58:24.909Z,9.52
2023-03-26T15:00:51.257Z,9.38
2023-03-26T15:03:17.660Z,9.32
2023-03-26T15:05:44.021Z,9.41
2023-03-26T15:08:10.346Z,9.35
2023-03-26T15:10:36.680Z,9.62
2023-03-26T15:13:02.996Z,9.85
2023-03-26T15:15:29.316Z,10.10
2023-03-26T15:17:55.704Z,10.14
2023-03-26T15:20:22.043Z,10.17
2023-03-26T15:22:48.374Z,10.12
2023-03-26T15:25:14.825Z,10.21
2023-03-26T15:27:41.263Z,10.15
2023-03-26T15:30:07.571Z,10.28
2023-03-26T15:32:33.944Z,10.21
2023-03-26T15:35:00.294Z,10.45
2023-03-26T15:37:26.618Z,10.21
2023-03-26T15:39:59.177Z,10.19
2023-03-26T15:42:26.677Z,10.09
2023-03-26T15:44:54.091Z,9.85
2023-03-26T15:47:20.807Z,9.87
2023-03-26T15:49:47.126Z,9.98
2023-03-26T15:52:13.449Z,9.78
2023-03-26T15:54:39.752Z,9.79
2023-03-26T15:57:06.129Z,9.77
2023-03-26T15:59:32.457Z,9.73
2023-03-26T16:01:58.788Z,9.76
2023-03-26T16:04:25.099Z,9.71
2023-03-26T16:06:51.445Z,9.57
2023-03-26T16:09:17.757Z,9.58
2023-03-26T16:11:44.062Z,9.47
2023-03-26T16:14:10.394Z,9.36
2023-03-26T16:16:36.696Z,9.26
2023-03-26T16:19:03.012Z,9.22
2023-03-26T16:21:31.410Z,9.36
2023-03-26T16:23:58.885Z,9.42
2023-03-26T16:26:25.201Z,9.36
2023-03-26T16:28:51.530Z,9.30
2023-03-26T16:31:36.820Z,9.50
2023-03-26T16:34:04.129Z,9.49
2023-03-26T16:36:30.432Z,9.53
2023-03-26T16:38:56.763Z,9.60
2023-03-26T16:41:23.062Z,9.79
2023-03-26T16:43:49.404Z,9.79
2023-03-26T16:46:15.752Z,9.74
2023-03-26T16:48:42.055Z,9.75
2023-03-26T16:51:08.394Z,9.75
2023-03-26T16:53:34.715Z,9.67
2023-03-26T16:56:01.058Z,9.52
2023-03-26T16:58:27.396Z,9.31
2023-03-26T17:00:53.964Z,9.08
2023-03-26T17:03:20.573Z,9.02
2023-03-26T17:05:47.021Z,8.94
2023-03-26T17:08:13.410Z,9.02
2023-03-26T17:10:39.749Z,8.88
2023-03-26T17:13:06.088Z,8.83
2023-03-26T17:15:32.412Z,8.81
2023-03-26T17:17:58.823Z,8.80
2023-03-26T17:20:25.196Z,8.74
2023-03-26T17:22:51.519Z,8.77
2023-03-26T17:25:17.831Z,8.76
2023-03-26T17:27:44.152Z,8.65
2023-03-26T17:30:10.781Z,8.77
2023-03-26T17:32:37.298Z,8.69
2023-03-26T17:35:07.995Z,8.70
2023-03-26T17:37:34.346Z,8.67
2023-03-26T17:40:00.670Z,8.76
2023-03-26T17:42:26.984Z,8.72
2023-03-26T17:44:53.322Z,8.65
2023-03-26T17:47:19.654Z,8.71
2023-03-26T17:49:45.988Z,8.73
2023-03-26T17:52:12.340Z,8.71
2023-03-26T17:54:38.654Z,8.66
2023-03-26T17:57:04.967Z,8.57
2023-03-26T17:59:31.320Z,8.66
2023-03-26T18:01:57.651Z,8.59
2023-03-26T18:04:24.007Z,8.56
2023-03-26T18:06:50.333Z,8.45
2023-03-26T18:09:16.633Z,8.44
2023-03-26T18:11:42.946Z,8.37
2023-03-26T18:14:09.262Z,8.41
2023-03-26T18:16:35.623Z,8.38
2023-03-26T18:19:01.935Z,8.35
2023-03-26T18:21:28.266Z,8.44
2023-03-26T18:23:54.590Z,8.34
2023-03-26T18:26:26.368Z,8.44
2023-03-26T18:28:52.692Z,8.35
2023-03-26T18:31:19.055Z,8.38
2023-03-26T18:33:45.507Z,8.41
2023-03-26T18:36:11.949Z,8.50
2023-03-26T18:38:40.018Z,8.54
2023-03-26T18:41:07.517Z,8.58
2023-03-26T18:43:35.223Z,8.16
2023-03-26T18:46:02.109Z,7.70
2023-03-26T18:48:28.457Z,7.43
2023-03-26T18:50:55.117Z,6.51
2023-03-26T18:53:21.676Z,6.54
2023-03-26T18:55:48.006Z,6.48
2023-03-26T18:58:14.321Z,6.56
2023-03-26T19:00:40.622Z,6.68
2023-03-26T19:03:07.028Z,6.80
2023-03-26T19:05:33.418Z,6.90
2023-03-26T19:07:59.730Z,7.00
2023-03-26T19:10:26.033Z,7.04
2023-03-26T19:12:52.347Z,7.09
2023-03-26T19:15:18.682Z,7.16
2023-03-26T19:17:45.056Z,7.14
2023-03-26T19:20:11.420Z,7.15
2023-03-26T19:22:37.729Z,7.05
2023-03-26T19:25:04.043Z,7.06
2023-03-26T19:27:30.368Z,7.03
2023-03-26T19:29:56.674Z,7.06
2023-03-26T19:32:23.023Z,7.09
2023-03-26T19:34:49.351Z,7.03
2023-03-26T19:37:15.679Z,7.17
2023-03-26T19:39:42.035Z,7.35
2023-03-26T19:42:08.349Z,7.09
2023-03-26T19:44:34.680Z,6.98
2023-03-26T19:47:01.027Z,6.96
2023-03-26T19:49:28.511Z,6.94
2023-03-26T19:51:54.997Z,6.90
2023-03-26T19:54:21.312Z,7.01
2023-03-26T19:56:47.695Z,6.91
2023-03-26T19:59:14.035Z,6.78
2023-03-26T20:01:40.378Z,6.92
2023-03-26T20:04:06.781Z,6.90
2023-03-26T20:06:43.056Z,6.85
2023-03-26T20:09:10.325Z,6.97
2023-03-26T20:11:36.687Z,6.83
2023-03-26T20:14:03.013Z,6.74
2023-03-26T20:16:29.415Z,6.75
2023-03-26T20:18:55.784Z,6.74
2023-03-26T20:21:22.118Z,6.76
2023-03-26T20:23:48.426Z,6.78
2023-03-26T20:26:14.734Z,6.70
2023-03-26T20:28:47.793Z,6.69
2023-03-26T20:31:15.079Z,6.69
2023-03-26T20:33:41.445Z,6.71
2023-03-26T20:36:07.787Z,6.67
2023-03-26T20:38:39.386Z,6.67
2023-03-26T20:41:06.393Z,6.64
2023-03-26T20:43:32.712Z,6.58
2023-03-26T20:45:59.007Z,6.56
2023-03-26T20:48:25.374Z,6.52
2023-03-26T20:50:51.700Z,6.54
2023-03-26T20:53:18.010Z,6.51
2023-03-26T20:55:44.310Z,6.50
2023-03-26T20:58:10.656Z,6.52
2023-03-26T21:00:36.987Z,6.53
2023-03-26T21:03:03.336Z,6.53
2023-03-26T21:05:29.674Z,6.56
2023-03-26T21:07:56.003Z,6.57
2023-03-26T21:10:22.295Z,6.63
2023-03-26T21:12:48.634Z,6.70
2023-03-26T21:15:23.074Z,6.83
2023-03-26T21:17:50.181Z,6.82
2023-03-26T21:20:16.546Z,6.83
2023-03-26T21:22:42.869Z,6.67
2023-03-26T21:25:09.242Z,6.48
2023-03-26T21:27:35.555Z,6.50
2023-03-26T21:30:01.859Z,6.56
2023-03-26T21:32:28.194Z,6.59
2023-03-26T21:37:23.757Z,6.46
2023-03-26T21:39:50.086Z,6.57
2023-03-26T21:42:16.428Z,6.50
2023-03-26T21:44:42.725Z,6.49
2023-03-26T21:47:09.903Z,6.58
2023-03-26T21:49:36.333Z,6.57
2023-03-26T21:52:02.653Z,6.50
2023-03-26T21:54:28.959Z,6.59
2023-03-26T21:56:55.330Z,6.56
2023-03-26T21:59:21.663Z,6.61
2023-03-26T22:01:48.025Z,6.58
2023-03-26T22:04:14.340Z,6.53
2023-03-26T22:06:40.661Z,6.46
2023-03-26T22:09:06.986Z,6.47
2023-03-26T22:11:33.297Z,6.46
2023-03-26T22:13:59.630Z,6.66
2023-03-26T22:16:25.985Z,6.56
2023-03-26T22:18:52.334Z,6.53
2023-03-26T22:21:18.650Z,6.54
2023-03-26T22:23:44.950Z,6.53
2023-03-26T22:26:11.262Z,6.64
2023-03-26T22:28:37.609Z,6.76
2023-03-26T22:31:03.952Z,6.78
2023-03-26T22:33:30.312Z,6.96
2023-03-26T22:35:56.656Z,6.97
2023-03-26T22:38:22.998Z,6.88
2023-03-26T22:40:49.347Z,6.95
2023-03-26T22:43:15.670Z,6.94
2023-03-26T22:45:41.991Z,6.90
2023-03-26T22:48:08.423Z,6.96
2023-03-26T22:50:34.761Z,7.02
2023-03-26T22:53:01.091Z,6.89
2023-03-26T22:55:28.956Z,6.96
2023-03-26T22:57:56.128Z,6.95
2023-03-26T23:00:22.436Z,6.98
2023-03-26T23:02:48.893Z,6.81
2023-03-26T23:05:15.296Z,6.74
2023-03-26T23:07:41.611Z,6.82
2023-03-26T23:10:07.932Z,6.74
2023-03-26T23:12:34.269Z,6.69
2023-03-26T23:15:00.569Z,6.52
2023-03-26T23:17:26.968Z,6.43
2023-03-26T23:19:53.298Z,6.56
2023-03-26T23:22:19.618Z,6.61
2023-03-26T23:24:45.940Z,6.52
2023-03-26T23:27:12.254Z,6.40
2023-03-26T23:29:38.551Z,6.26
2023-03-26T23:32:24.484Z,6.27
2023-03-26T23:34:51.942Z,6.24
2023-03-26T23:37:18.866Z,6.39
2023-03-26T23:39:45.161Z,6.40
2023-03-26T23:42:11.483Z,6.33
2023-03-26T23:44:37.790Z,6.45
2023-03-26T23:47:04.090Z,6.49
2023-03-26T23:49:30.404Z,6.56
2023-03-26T23:51:56.757Z,6.68
2023-03-26T23:54:23.085Z,6.63
2023-03-26T23:56:49.459Z,6.56
2023-03-26T23:59:15.814Z,6.51
